Time;durP1;ratioP1;P1;durP2;ratioP2;P2;SDS_P1;SDS_P2;PMS_P1;PMS_P2;Temp;Humidity;BMP_temperature;BMP_pressure;BME280_temperature;BME280_humidity;BME280_pressure;Samples;Min_cycle;Max_cycle;Signal;HPM_P1;HPM_P2
2021/11/27 00:01:35;;;;;;;4.30;0.98;;;;;;;;;;4984291;28;20474;-56
2021/11/27 00:04:01;;;;;;;3.25;0.70;;;;;;;;;;4985017;28;20133;-56
2021/11/27 00:06:27;;;;;;;4.40;0.50;;;;;;;;;;4966267;28;20050;-54
2021/11/27 00:08:53;;;;;;;1.67;0.57;;;;;;;;;;4984300;28;20050;-56
2021/11/27 00:11:20;;;;;;;1.83;0.50;;;;;;;;;;4983735;28;20038;-54
2021/11/27 00:13:46;;;;;;;1.35;0.50;;;;;;;;;;4984491;28;20112;-55
2021/11/27 00:16:12;;;;;;;1.70;0.47;;;;;;;;;;4983352;28;20046;-55
2021/11/27 00:18:38;;;;;;;4.53;0.82;;;;;;;;;;4982438;28;21151;-55
2021/11/27 00:21:06;;;;;;;2.75;0.60;;;;;;;;;;4963519;28;20034;-56
2021/11/27 00:23:34;;;;;;;3.58;0.80;;;;;;;;;;4981898;28;20046;-55
2021/11/27 00:26:01;;;;;;;2.97;0.60;;;;;;;;;;4983111;28;20033;-56
2021/11/27 00:28:27;;;;;;;2.22;0.52;;;;;;;;;;4981606;28;20074;-55
2021/11/27 00:30:54;;;;;;;3.42;0.75;;;;;;;;;;4984189;28;20042;-52
2021/11/27 00:33:20;;;;;;;3.58;0.80;;;;;;;;;;4966075;28;20116;-56
2021/11/27 00:35:46;;;;;;;2.58;0.70;;;;;;;;;;4985584;28;20534;-56
2021/11/27 00:38:12;;;;;;;1.95;0.57;;;;;;;;;;4984864;28;20054;-54
2021/11/27 00:40:39;;;;;;;1.23;0.50;;;;;;;;;;4983209;28;20116;-54
2021/11/27 00:43:07;;;;;;;3.13;0.60;;;;;;;;;;4982884;28;20077;-55
2021/11/27 00:45:34;;;;;;;2.53;0.63;;;;;;;;;;4982041;28;20038;-56
2021/11/27 00:48:00;;;;;;;1.13;0.40;;;;;;;;;;4973897;28;20845;-55
2021/11/27 00:50:28;;;;;;;3.17;0.50;;;;;;;;;;4981454;28;20042;-53
2021/11/27 00:52:54;;;;;;;3.03;0.82;;;;;;;;;;4983654;28;20043;-56
2021/11/27 00:55:20;;;;;;;2.40;0.52;;;;;;;;;;4982137;28;20046;-55
2021/11/27 00:57:47;;;;;;;3.63;0.57;;;;;;;;;;4983752;28;20634;-56
2021/11/27 01:00:16;;;;;;;1.38;0.57;;;;;;;;;;4981558;28;20046;-55
2021/11/27 01:02:42;;;;;;;2.85;0.70;;;;;;;;;;4982313;28;20046;-55
2021/11/27 01:05:09;;;;;;;1.50;0.43;;;;;;;;;;4984680;28;20571;-57
2021/11/27 01:07:35;;;;;;;2.05;0.70;;;;;;;;;;4981092;28;20818;-57
2021/11/27 01:10:03;;;;;;;6.13;0.80;;;;;;;;;;4980426;28;20047;-56
2021/11/27 01:12:29;;;;;;;3.97;0.60;;;;;;;;;;4983909;28;20084;-56
2021/11/27 01:14:55;;;;;;;1.88;0.63;;;;;;;;;;4984103;28;20141;-53
2021/11/27 01:17:21;;;;;;;2.10;0.55;;;;;;;;;;4982972;28;20077;-57
2021/11/27 01:19:47;;;;;;;7.25;0.60;;;;;;;;;;4982352;28;20507;-56
2021/11/27 01:22:15;;;;;;;4.00;0.70;;;;;;;;;;4985652;28;20033;-55
2021/11/27 01:24:41;;;;;;;4.47;1.15;;;;;;;;;;4984376;28;20041;-53
2021/11/27 01:27:08;;;;;;;1.75;0.50;;;;;;;;;;4982833;28;20063;-58
2021/11/27 01:29:34;;;;;;;2.08;0.60;;;;;;;;;;4983155;28;20511;-54
2021/11/27 01:32:00;;;;;;;1.02;0.50;;;;;;;;;;4983785;28;20434;-56
2021/11/27 01:34:26;;;;;;;2.72;0.70;;;;;;;;;;4985480;28;20482;-57
2021/11/27 01:36:52;;;;;;;3.67;0.70;;;;;;;;;;4972424;28;20050;-56
2021/11/27 01:39:18;;;;;;;1.17;0.50;;;;;;;;;;4972604;28;20050;-57
2021/11/27 01:41:44;;;;;;;6.97;0.60;;;;;;;;;;4984624;28;20043;-57
2021/11/27 01:44:10;;;;;;;2.03;0.57;;;;;;;;;;4984151;28;20058;-53
2021/11/27 01:46:38;;;;;;;3.30;0.70;;;;;;;;;;4983801;28;20041;-54
2021/11/27 01:49:05;;;;;;;2.55;0.63;;;;;;;;;;4982458;28;20522;-55
2021/11/27 01:51:31;;;;;;;5.10;1.05;;;;;;;;;;4985320;28;20942;-56
2021/11/27 01:54:02;;;;;;;1.88;0.65;;;;;;;;;;4984036;28;20041;-56
2021/11/27 01:56:31;;;;;;;2.90;0.70;;;;;;;;;;4981801;28;20046;-55
2021/11/27 01:59:00;;;;;;;3.65;0.70;;;;;;;;;;4983544;28;20034;-55
2021/11/27 02:01:28;;;;;;;1.42;0.50;;;;;;;;;;4982736;28;20395;-55
2021/11/27 02:03:55;;;;;;;3.25;0.80;;;;;;;;;;4984746;28;20785;-54
2021/11/27 02:06:22;;;;;;;9.63;0.82;;;;;;;;;;4982847;28;20048;-55
2021/11/27 02:08:50;;;;;;;2.47;0.82;;;;;;;;;;4965103;28;20049;-57
2021/11/27 02:11:18;;;;;;;4.53;0.98;;;;;;;;;;4985209;28;20121;-56
2021/11/27 02:13:44;;;;;;;4.28;0.70;;;;;;;;;;4982819;28;21225;-56
2021/11/27 02:16:10;;;;;;;3.67;0.68;;;;;;;;;;4982816;28;20162;-55
2021/11/27 02:18:37;;;;;;;4.28;0.90;;;;;;;;;;4982741;28;20052;-54
2021/11/27 02:21:05;;;;;;;2.40;0.70;;;;;;;;;;4966230;28;20058;-57
2021/11/27 02:23:31;;;;;;;1.75;0.73;;;;;;;;;;4981290;28;20038;-55
2021/11/27 02:26:00;;;;;;;2.17;0.65;;;;;;;;;;4982194;28;20514;-57
2021/11/27 02:28:27;;;;;;;2.03;0.60;;;;;;;;;;4981402;28;20038;-53
2021/11/27 02:30:53;;;;;;;1.92;0.70;;;;;;;;;;4982781;28;20041;-56
2021/11/27 02:33:18;;;;;;;2.85;0.93;;;;;;;;;;4981674;28;20037;-57
2021/11/27 02:35:44;;;;;;;6.57;1.00;;;;;;;;;;4982772;28;20066;-56
2021/11/27 02:38:11;;;;;;;2.22;0.63;;;;;;;;;;4983373;28;20050;-54
2021/11/27 02:40:37;;;;;;;6.68;0.63;;;;;;;;;;4982918;28;20038;-54
2021/11/27 02:43:03;;;;;;;8.68;0.90;;;;;;;;;;4985573;28;20500;-54
2021/11/27 02:45:29;;;;;;;1.52;0.65;;;;;;;;;;4981321;28;20038;-55
2021/11/27 02:47:55;;;;;;;3.83;0.80;;;;;;;;;;4962618;28;20067;-56
2021/11/27 02:50:21;;;;;;;2.90;0.80;;;;;;;;;;4984271;28;20523;-55
2021/11/27 02:52:47;;;;;;;2.88;0.77;;;;;;;;;;4986671;28;20125;-54
2021/11/27 02:55:13;;;;;;;4.22;0.70;;;;;;;;;;4989426;28;20499;-56
2021/11/27 02:57:39;;;;;;;3.95;0.70;;;;;;;;;;4988739;28;20046;-53
2021/11/27 03:00:07;;;;;;;3.78;0.70;;;;;;;;;;4989121;28;20041;-56
2021/11/27 03:02:33;;;;;;;1.50;0.50;;;;;;;;;;4985721;28;20043;-56
2021/11/27 03:04:59;;;;;;;3.05;0.73;;;;;;;;;;4985825;28;20076;-55
2021/11/27 03:07:25;;;;;;;3.08;0.85;;;;;;;;;;4986652;28;20145;-55
2021/11/27 03:09:51;;;;;;;2.90;1.30;;;;;;;;;;4983569;28;20108;-55
2021/11/27 03:12:17;;;;;;;3.33;1.33;;;;;;;;;;4985566;28;20046;-54
2021/11/27 03:14:43;;;;;;;2.55;0.70;;;;;;;;;;4983688;28;20168;-56
2021/11/27 03:17:09;;;;;;;3.67;0.63;;;;;;;;;;4968094;28;20042;-55
2021/11/27 03:19:37;;;;;;;4.50;0.80;;;;;;;;;;4984062;28;20569;-55
2021/11/27 03:22:03;;;;;;;4.70;0.70;;;;;;;;;;4985300;28;20038;-55
2021/11/27 03:24:30;;;;;;;2.28;0.80;;;;;;;;;;4983803;28;20971;-55
2021/11/27 03:26:56;;;;;;;3.95;1.10;;;;;;;;;;4982982;28;20065;-55
2021/11/27 03:29:22;;;;;;;2.47;0.77;;;;;;;;;;4984236;28;20043;-55
2021/11/27 03:31:48;;;;;;;4.85;0.77;;;;;;;;;;4986027;28;20364;-55
2021/11/27 03:34:14;;;;;;;2.97;0.88;;;;;;;;;;4986676;28;20678;-55
2021/11/27 03:36:39;;;;;;;3.70;0.80;;;;;;;;;;4983298;28;20455;-56
2021/11/27 03:39:06;;;;;;;2.70;0.80;;;;;;;;;;4983844;28;20499;-52
2021/11/27 03:41:32;;;;;;;2.60;0.80;;;;;;;;;;4967722;28;20120;-56
2021/11/27 03:43:58;;;;;;;2.05;0.80;;;;;;;;;;4983723;28;20146;-56
2021/11/27 03:46:24;;;;;;;4.05;1.00;;;;;;;;;;4984309;28;20461;-55
2021/11/27 03:48:52;;;;;;;4.55;1.10;;;;;;;;;;4983698;28;20454;-56
2021/11/27 03:51:20;;;;;;;4.13;1.00;;;;;;;;;;4985031;28;20129;-56
2021/11/27 03:53:46;;;;;;;3.75;1.00;;;;;;;;;;4984549;28;20057;-54
2021/11/27 03:56:14;;;;;;;2.40;0.90;;;;;;;;;;4984598;28;20503;-54
2021/11/27 03:58:41;;;;;;;2.88;0.90;;;;;;;;;;4981845;28;20080;-57
2021/11/27 04:01:09;;;;;;;2.50;0.90;;;;;;;;;;4983357;28;20124;-54
2021/11/27 04:03:36;;;;;;;2.65;0.90;;;;;;;;;;4982682;28;20038;-52
2021/11/27 04:06:03;;;;;;;7.07;1.33;;;;;;;;;;4983374;28;20037;-56
2021/11/27 04:08:29;;;;;;;5.68;1.60;;;;;;;;;;4953479;28;20046;-54
2021/11/27 04:10:55;;;;;;;5.32;1.50;;;;;;;;;;4954728;28;20881;-52
2021/11/27 04:13:21;;;;;;;4.25;1.40;;;;;;;;;;4953411;28;20050;-55
2021/11/27 04:15:47;;;;;;;5.43;1.20;;;;;;;;;;4951627;28;20432;-53
2021/11/27 04:18:14;;;;;;;4.00;1.33;;;;;;;;;;4951574;28;20043;-55
2021/11/27 04:20:40;;;;;;;3.90;1.38;;;;;;;;;;4951954;28;20039;-51
2021/11/27 04:23:06;;;;;;;3.55;1.23;;;;;;;;;;4952489;28;20042;-54
2021/11/27 04:25:33;;;;;;;9.77;2.38;;;;;;;;;;4952548;28;20405;-55
2021/11/27 04:27:58;;;;;;;4.25;1.80;;;;;;;;;;4953606;28;20046;-55
2021/11/27 04:30:26;;;;;;;7.95;2.17;;;;;;;;;;4953535;28;20114;-56
2021/11/27 04:32:53;;;;;;;5.88;1.42;;;;;;;;;;4951404;28;20039;-52
2021/11/27 04:35:19;;;;;;;4.30;1.40;;;;;;;;;;4952544;28;20049;-55
2021/11/27 04:37:45;;;;;;;5.28;1.60;;;;;;;;;;4951382;28;20090;-53
2021/11/27 04:40:12;;;;;;;4.22;1.90;;;;;;;;;;4952802;28;20057;-50
2021/11/27 04:42:38;;;;;;;6.60;2.13;;;;;;;;;;4952029;28;20038;-54
2021/11/27 04:45:04;;;;;;;6.60;2.40;;;;;;;;;;4952282;28;20507;-52
2021/11/27 04:47:30;;;;;;;6.07;2.50;;;;;;;;;;4951583;28;20732;-55
2021/11/27 04:49:56;;;;;;;8.45;2.50;;;;;;;;;;4952414;28;20039;-53
2021/11/27 04:52:24;;;;;;;5.68;1.70;;;;;;;;;;4950745;28;20402;-52
2021/11/27 04:54:50;;;;;;;6.35;2.35;;;;;;;;;;4951536;28;20035;-54
2021/11/27 04:57:17;;;;;;;17.17;7.80;;;;;;;;;;4931347;28;20093;-53
2021/11/27 04:59:43;;;;;;;10.27;3.35;;;;;;;;;;4951334;28;20158;-53
2021/11/27 05:02:09;;;;;;;13.75;3.05;;;;;;;;;;4952980;28;20039;-56
2021/11/27 05:04:35;;;;;;;9.30;3.10;;;;;;;;;;4952854;28;20043;-54
2021/11/27 05:07:01;;;;;;;7.15;2.53;;;;;;;;;;4963354;28;20541;-54
2021/11/27 05:09:27;;;;;;;9.65;2.63;;;;;;;;;;4983117;28;20042;-55
2021/11/27 05:11:53;;;;;;;7.75;2.70;;;;;;;;;;4984027;28;20103;-54
2021/11/27 05:14:19;;;;;;;9.90;2.88;;;;;;;;;;4985804;28;20126;-53
2021/11/27 05:16:44;;;;;;;9.00;2.42;;;;;;;;;;4985828;28;20057;-54
2021/11/27 05:19:10;;;;;;;11.80;3.10;;;;;;;;;;4987205;28;20052;-56
2021/11/27 05:21:36;;;;;;;13.07;2.70;;;;;;;;;;4985052;28;20083;-54
2021/11/27 05:24:03;;;;;;;5.90;2.08;;;;;;;;;;4987039;28;20051;-55
2021/11/27 05:26:29;;;;;;;7.32;2.60;;;;;;;;;;4986223;28;20680;-56
2021/11/27 05:28:55;;;;;;;5.05;2.40;;;;;;;;;;4984439;28;20116;-52
2021/11/27 05:31:22;;;;;;;6.45;2.22;;;;;;;;;;4984249;28;20042;-55
2021/11/27 05:34:10;;;;;;;4.18;1.85;;;;;;;;;;4968239;28;20066;-57
2021/11/27 05:36:35;;;;;;;6.47;2.33;;;;;;;;;;4986438;28;20061;-52
2021/11/27 05:39:03;;;;;;;8.57;2.40;;;;;;;;;;4983478;28;20050;-52
2021/11/27 05:41:29;;;;;;;8.05;2.20;;;;;;;;;;4982403;28;20506;-54
2021/11/27 05:43:56;;;;;;;5.20;2.15;;;;;;;;;;4983936;28;20037;-53
2021/11/27 05:46:22;;;;;;;7.57;4.35;;;;;;;;;;4981528;28;20038;-54
2021/11/27 05:48:47;;;;;;;7.95;3.90;;;;;;;;;;4985793;28;20515;-51
2021/11/27 05:51:14;;;;;;;5.28;3.00;;;;;;;;;;4985149;28;20126;-52
2021/11/27 05:53:40;;;;;;;12.23;4.72;;;;;;;;;;4982935;28;21737;-54
2021/11/27 05:56:06;;;;;;;10.07;5.25;;;;;;;;;;4984090;28;20050;-54
2021/11/27 05:58:32;;;;;;;8.48;4.72;;;;;;;;;;4982009;28;20089;-54
2021/11/27 06:01:02;;;;;;;6.97;3.90;;;;;;;;;;4986798;28;20125;-54
2021/11/27 06:03:29;;;;;;;6.57;3.47;;;;;;;;;;4981165;28;20061;-53
2021/11/27 06:05:55;;;;;;;9.13;4.72;;;;;;;;;;4983724;28;20042;-54
2021/11/27 06:08:21;;;;;;;12.32;6.82;;;;;;;;;;4980775;28;20056;-55
2021/11/27 06:10:47;;;;;;;12.65;6.85;;;;;;;;;;4981646;28;20038;-50
2021/11/27 06:13:13;;;;;;;10.13;5.18;;;;;;;;;;4982479;28;20088;-57
2021/11/27 06:15:38;;;;;;;8.13;4.45;;;;;;;;;;4980873;28;20055;-53
2021/11/27 06:18:04;;;;;;;7.53;4.40;;;;;;;;;;4983178;28;20117;-54
2021/11/27 06:20:30;;;;;;;7.78;4.57;;;;;;;;;;4979112;28;20040;-52
2021/11/27 06:22:56;;;;;;;7.80;4.20;;;;;;;;;;4966493;28;20057;-54
2021/11/27 06:25:22;;;;;;;8.98;4.65;;;;;;;;;;4982067;28;20578;-52
2021/11/27 06:27:48;;;;;;;13.80;7.15;;;;;;;;;;4981480;28;20047;-52
2021/11/27 06:30:14;;;;;;;11.73;7.28;;;;;;;;;;4974977;28;20050;-52
2021/11/27 06:32:40;;;;;;;11.02;6.50;;;;;;;;;;4981484;28;20040;-55
2021/11/27 06:35:06;;;;;;;12.05;6.72;;;;;;;;;;4963977;28;20046;-54
2021/11/27 06:37:33;;;;;;;16.33;6.85;;;;;;;;;;4978893;28;20061;-54
2021/11/27 06:40:00;;;;;;;13.40;6.55;;;;;;;;;;4980924;28;20066;-55
2021/11/27 06:42:28;;;;;;;10.75;6.65;;;;;;;;;;4980396;28;20101;-55
2021/11/27 06:44:54;;;;;;;11.57;6.38;;;;;;;;;;4982812;28;20038;-56
2021/11/27 06:47:21;;;;;;;9.50;5.55;;;;;;;;;;4980072;28;20050;-56
2021/11/27 06:49:48;;;;;;;9.27;5.95;;;;;;;;;;4982520;28;20038;-56
2021/11/27 06:52:14;;;;;;;9.55;6.05;;;;;;;;;;4981063;28;20054;-54
2021/11/27 06:54:41;;;;;;;12.75;6.72;;;;;;;;;;4981488;28;20057;-55
2021/11/27 06:57:07;;;;;;;8.98;5.75;;;;;;;;;;4980360;28;21871;-53
2021/11/27 06:59:34;;;;;;;7.00;3.83;;;;;;;;;;4979425;28;20039;-51
2021/11/27 07:02:00;;;;;;;4.15;2.13;;;;;;;;;;4983026;28;20038;-55
2021/11/27 07:04:26;;;;;;;10.13;2.97;;;;;;;;;;4979400;28;20041;-52
2021/11/27 07:06:52;;;;;;;7.20;3.58;;;;;;;;;;4981839;28;20057;-56
2021/11/27 07:09:18;;;;;;;4.20;2.30;;;;;;;;;;4979564;28;20046;-55
2021/11/27 07:11:44;;;;;;;5.88;3.42;;;;;;;;;;4967829;28;20030;-56
2021/11/27 07:14:10;;;;;;;4.60;2.75;;;;;;;;;;4980628;28;20837;-54
2021/11/27 07:16:36;;;;;;;4.38;1.98;;;;;;;;;;4964050;28;20566;-56
2021/11/27 07:19:03;;;;;;;3.95;2.13;;;;;;;;;;4979494;28;20153;-54
2021/11/27 07:21:28;;;;;;;3.95;1.85;;;;;;;;;;4981481;28;20759;-56
2021/11/27 07:23:54;;;;;;;5.40;2.10;;;;;;;;;;4966128;28;20097;-53
2021/11/27 07:26:21;;;;;;;3.92;2.28;;;;;;;;;;4981989;28;20034;-54
2021/11/27 07:28:47;;;;;;;7.55;2.80;;;;;;;;;;4951514;28;20046;-52
2021/11/27 07:31:14;;;;;;;3.60;1.95;;;;;;;;;;4963843;28;20141;-54
2021/11/27 07:33:39;;;;;;;2.70;1.20;;;;;;;;;;4982186;28;20042;-55
2021/11/27 07:36:06;;;;;;;2.58;1.10;;;;;;;;;;4985451;28;20077;-57
2021/11/27 07:38:32;;;;;;;1.95;0.75;;;;;;;;;;4983846;28;20045;-57
2021/11/27 07:40:58;;;;;;;3.70;1.20;;;;;;;;;;4986915;28;20062;-55
2021/11/27 07:43:24;;;;;;;3.08;1.10;;;;;;;;;;4984397;28;20039;-57
2021/11/27 07:45:50;;;;;;;2.28;0.90;;;;;;;;;;4985131;28;20126;-54
2021/11/27 07:48:16;;;;;;;3.33;1.13;;;;;;;;;;4988010;28;20251;-54
2021/11/27 07:50:42;;;;;;;2.80;0.93;;;;;;;;;;4984190;28;20038;-55
2021/11/27 07:53:08;;;;;;;2.08;0.77;;;;;;;;;;4985133;28;20042;-56
2021/11/27 07:55:34;;;;;;;1.20;0.57;;;;;;;;;;4988844;28;20076;-57
2021/11/27 07:58:00;;;;;;;1.00;0.55;;;;;;;;;;4987405;28;20065;-55
2021/11/27 08:00:26;;;;;;;2.80;1.00;;;;;;;;;;4985017;28;20568;-56
2021/11/27 08:02:52;;;;;;;1.90;0.80;;;;;;;;;;4986845;28;20043;-54
2021/11/27 08:05:18;;;;;;;3.25;1.00;;;;;;;;;;4985576;28;20053;-58
2021/11/27 08:07:44;;;;;;;3.03;1.08;;;;;;;;;;4985416;28;20066;-56
2021/11/27 08:10:11;;;;;;;3.00;0.98;;;;;;;;;;4983945;28;20161;-56
2021/11/27 08:12:37;;;;;;;5.72;1.30;;;;;;;;;;4985084;28;20030;-54
2021/11/27 08:15:04;;;;;;;7.00;1.13;;;;;;;;;;4985745;28;20046;-55
2021/11/27 08:17:30;;;;;;;2.83;1.20;;;;;;;;;;4984266;28;20467;-55
2021/11/27 08:19:57;;;;;;;2.58;1.02;;;;;;;;;;4984610;28;20073;-53
2021/11/27 08:22:23;;;;;;;4.82;1.23;;;;;;;;;;4984934;28;20042;-55
2021/11/27 08:24:49;;;;;;;3.22;1.25;;;;;;;;;;4986112;28;20033;-51
2021/11/27 08:27:16;;;;;;;2.60;0.90;;;;;;;;;;4986126;28;20043;-55
2021/11/27 08:29:42;;;;;;;2.83;1.10;;;;;;;;;;4985734;28;20067;-55
2021/11/27 08:32:08;;;;;;;2.65;1.00;;;;;;;;;;4985642;28;20056;-56
2021/11/27 08:34:34;;;;;;;2.70;1.13;;;;;;;;;;4967818;28;20042;-53
2021/11/27 08:37:00;;;;;;;2.83;1.15;;;;;;;;;;4983916;28;20050;-56
2021/11/27 08:39:25;;;;;;;5.93;1.20;;;;;;;;;;4982627;28;20034;-53
2021/11/27 08:41:51;;;;;;;6.05;1.48;;;;;;;;;;4985388;28;20052;-55
2021/11/27 08:44:17;;;;;;;5.82;1.85;;;;;;;;;;4985635;28;20064;-55
2021/11/27 08:46:43;;;;;;;2.35;0.88;;;;;;;;;;4967802;28;20077;-55
2021/11/27 08:49:09;;;;;;;3.42;1.45;;;;;;;;;;4982058;28;20104;-54
2021/11/27 08:51:38;;;;;;;2.70;1.30;;;;;;;;;;4982541;28;20049;-53
2021/11/27 08:54:05;;;;;;;7.05;1.52;;;;;;;;;;4985262;28;20038;-52
2021/11/27 08:56:31;;;;;;;3.50;1.58;;;;;;;;;;4983099;28;20438;-54
2021/11/27 08:58:56;;;;;;;3.30;1.48;;;;;;;;;;4984508;28;20072;-54
2021/11/27 09:01:22;;;;;;;3.95;1.95;;;;;;;;;;4984095;28;20519;-52
2021/11/27 09:03:48;;;;;;;5.47;2.58;;;;;;;;;;4985034;28;20289;-55
2021/11/27 09:06:14;;;;;;;4.70;2.40;;;;;;;;;;4985267;28;20045;-55
2021/11/27 09:08:41;;;;;;;4.90;2.83;;;;;;;;;;4983651;28;20065;-55
2021/11/27 09:11:08;;;;;;;5.40;3.17;;;;;;;;;;4983774;28;20043;-54
2021/11/27 09:13:34;;;;;;;6.40;3.58;;;;;;;;;;4982829;28;20065;-52
2021/11/27 09:16:00;;;;;;;6.00;3.30;;;;;;;;;;4982206;28;20054;-56
2021/11/27 09:18:29;;;;;;;6.95;3.88;;;;;;;;;;4981237;28;20041;-56
2021/11/27 09:20:55;;;;;;;5.97;3.78;;;;;;;;;;4968324;28;20454;-54
2021/11/27 09:23:21;;;;;;;6.10;3.70;;;;;;;;;;4982030;28;20034;-56
2021/11/27 09:25:47;;;;;;;5.32;3.20;;;;;;;;;;4985482;28;20069;-53
2021/11/27 09:28:13;;;;;;;3.50;1.98;;;;;;;;;;4981261;28;20133;-56
2021/11/27 09:30:39;;;;;;;4.25;2.00;;;;;;;;;;4982628;28;20049;-52
2021/11/27 09:33:05;;;;;;;3.83;1.85;;;;;;;;;;4967517;28;20031;-54
2021/11/27 09:35:31;;;;;;;3.75;1.80;;;;;;;;;;4982400;28;20075;-56
2021/11/27 09:37:57;;;;;;;3.45;1.80;;;;;;;;;;4981074;28;20669;-55
2021/11/27 09:40:23;;;;;;;4.20;1.85;;;;;;;;;;4983216;28;20050;-55
2021/11/27 09:42:50;;;;;;;5.13;1.98;;;;;;;;;;4982550;28;20153;-55
2021/11/27 09:45:16;;;;;;;3.92;1.70;;;;;;;;;;4981710;28;20045;-54
2021/11/27 09:47:44;;;;;;;4.15;2.00;;;;;;;;;;4981744;28;20136;-54
2021/11/27 09:50:10;;;;;;;4.53;2.50;;;;;;;;;;4980984;28;20072;-54
2021/11/27 09:52:36;;;;;;;4.30;2.38;;;;;;;;;;4982844;28;20719;-53
2021/11/27 09:55:02;;;;;;;5.07;2.30;;;;;;;;;;4984018;28;20546;-52
2021/11/27 09:57:28;;;;;;;4.68;2.28;;;;;;;;;;4981078;28;20414;-55
2021/11/27 09:59:54;;;;;;;4.53;2.10;;;;;;;;;;4983021;28;20108;-51
2021/11/27 10:02:22;;;;;;;4.03;2.00;;;;;;;;;;4982262;28;20038;-54
2021/11/27 10:04:54;;;;;;;3.55;1.80;;;;;;;;;;4952107;28;20057;-55
2021/11/27 10:07:20;;;;;;;6.28;1.95;;;;;;;;;;4981245;28;20120;-55
2021/11/27 10:09:47;;;;;;;4.15;1.98;;;;;;;;;;4981311;28;20050;-55
2021/11/27 10:12:13;;;;;;;5.00;1.67;;;;;;;;;;4980044;28;20049;-53
2021/11/27 10:14:40;;;;;;;7.30;1.73;;;;;;;;;;4981128;28;20069;-51
2021/11/27 10:17:09;;;;;;;4.10;1.80;;;;;;;;;;4980102;28;20068;-54
2021/11/27 10:19:41;;;;;;;4.30;1.88;;;;;;;;;;4980499;28;20128;-55
2021/11/27 10:22:08;;;;;;;4.85;1.92;;;;;;;;;;4980964;28;20034;-55
2021/11/27 10:24:34;;;;;;;3.88;1.60;;;;;;;;;;4982159;28;20073;-52
2021/11/27 10:27:01;;;;;;;3.53;1.58;;;;;;;;;;4983387;28;20042;-53
2021/11/27 10:29:35;;;;;;;4.38;1.80;;;;;;;;;;4982094;28;20038;-54
2021/11/27 10:32:19;;;;;;;4.70;1.55;;;;;;;;;;4984830;28;20062;-55
2021/11/27 10:34:50;;;;;;;3.47;1.45;;;;;;;;;;4983813;28;20065;-55
2021/11/27 10:37:34;;;;;;;4.35;1.58;;;;;;;;;;4985811;28;20050;-54
2021/11/27 10:40:09;;;;;;;3.90;1.42;;;;;;;;;;4983908;28;20054;-52
2021/11/27 10:42:36;;;;;;;5.80;1.40;;;;;;;;;;4967431;28;20046;-56
2021/11/27 10:45:19;;;;;;;5.32;1.60;;;;;;;;;;4982975;28;20038;-57
2021/11/27 10:47:45;;;;;;;4.60;1.77;;;;;;;;;;4964017;28;20062;-55
2021/11/27 10:50:17;;;;;;;4.35;1.45;;;;;;;;;;4984594;28;20085;-55
2021/11/27 10:52:44;;;;;;;3.85;1.60;;;;;;;;;;4981537;28;20042;-54
2021/11/27 10:55:23;;;;;;;3.30;1.50;;;;;;;;;;4983694;28;20487;-52
2021/11/27 10:57:54;;;;;;;3.65;1.52;;;;;;;;;;4982762;28;20046;-56
2021/11/27 11:00:41;;;;;;;3.75;1.58;;;;;;;;;;4981443;28;20149;-56
2021/11/27 11:03:25;;;;;;;3.25;1.42;;;;;;;;;;4984187;28;20043;-55
2021/11/27 11:05:51;;;;;;;3.85;1.65;;;;;;;;;;4983378;28;20431;-52
2021/11/27 11:08:29;;;;;;;4.07;1.50;;;;;;;;;;4982171;28;20109;-51
2021/11/27 11:10:54;;;;;;;3.65;1.48;;;;;;;;;;4966072;28;20069;-53
2021/11/27 11:13:28;;;;;;;3.72;1.50;;;;;;;;;;4984443;28;20447;-56
2021/11/27 11:15:54;;;;;;;3.28;1.40;;;;;;;;;;4984696;28;20652;-52
2021/11/27 11:18:23;;;;;;;2.80;1.20;;;;;;;;;;4987693;28;20133;-55
2021/11/27 11:20:53;;;;;;;4.25;1.55;;;;;;;;;;4968895;28;20037;-55
2021/11/27 11:23:23;;;;;;;4.10;1.73;;;;;;;;;;4987698;28;20039;-54
2021/11/27 11:25:57;;;;;;;3.60;1.42;;;;;;;;;;4987929;28;20084;-52
2021/11/27 11:28:22;;;;;;;;;;;;;;;;;;4978326;28;20042;-55
2021/11/27 11:30:49;;;;;;;3.92;1.50;;;;;;;;;;4985889;28;19918;-54
2021/11/27 11:33:16;;;;;;;3.80;1.60;;;;;;;;;;4973114;28;20074;-55
2021/11/27 11:35:42;;;;;;;6.15;2.00;;;;;;;;;;4986360;28;20057;-51
2021/11/27 11:38:10;;;;;;;3.88;1.80;;;;;;;;;;4987478;28;20061;-55
2021/11/27 11:40:37;;;;;;;4.40;1.60;;;;;;;;;;4986185;28;20048;-56
2021/11/27 11:43:02;;;;;;;5.07;2.05;;;;;;;;;;4986525;28;20062;-53
2021/11/27 11:45:28;;;;;;;5.45;2.20;;;;;;;;;;4985411;28;20069;-54
2021/11/27 11:47:54;;;;;;;5.03;2.22;;;;;;;;;;4983564;28;20490;-53
2021/11/27 11:50:21;;;;;;;5.13;2.38;;;;;;;;;;4984136;28;20033;-57
2021/11/27 11:52:59;;;;;;;6.05;2.20;;;;;;;;;;4985117;28;20030;-55
2021/11/27 11:55:25;;;;;;;13.02;2.30;;;;;;;;;;4966793;28;20050;-53
2021/11/27 11:57:58;;;;;;;5.00;2.40;;;;;;;;;;4967333;28;20565;-55
2021/11/27 12:00:33;;;;;;;5.38;2.45;;;;;;;;;;4984149;28;20827;-56
2021/11/27 12:03:09;;;;;;;7.30;2.60;;;;;;;;;;4985936;28;20509;-52
2021/11/27 12:05:36;;;;;;;9.65;2.47;;;;;;;;;;4985395;28;20463;-53
2021/11/27 12:08:04;;;;;;;7.95;2.78;;;;;;;;;;4984960;28;20038;-53
2021/11/27 12:10:43;;;;;;;5.38;2.88;;;;;;;;;;4983948;28;20034;-55
2021/11/27 12:13:09;;;;;;;5.55;2.90;;;;;;;;;;4985211;28;20057;-52
2021/11/27 12:15:36;;;;;;;5.03;2.58;;;;;;;;;;4986515;28;20054;-54
2021/11/27 12:18:02;;;;;;;5.45;3.08;;;;;;;;;;4984123;28;20057;-55
2021/11/27 12:20:48;;;;;;;9.07;3.72;;;;;;;;;;4983366;28;20137;-54
2021/11/27 12:23:26;;;;;;;5.65;3.20;;;;;;;;;;4983920;28;20133;-53
2021/11/27 12:26:07;;;;;;;7.43;3.50;;;;;;;;;;4985848;28;20125;-55
2021/11/27 12:28:38;;;;;;;5.15;2.50;;;;;;;;;;4981480;28;20057;-55
2021/11/27 12:31:13;;;;;;;4.90;2.70;;;;;;;;;;4985524;28;20414;-54
2021/11/27 12:33:43;;;;;;;7.65;3.63;;;;;;;;;;4982635;28;20129;-52
2021/11/27 12:36:39;;;;;;;4.50;2.70;;;;;;;;;;4986427;28;20078;-57
2021/11/27 12:39:05;;;;;;;5.32;2.33;;;;;;;;;;4983736;28;20181;-56
2021/11/27 12:41:33;;;;;;;5.13;2.78;;;;;;;;;;4966561;28;20039;-55
2021/11/27 12:44:17;;;;;;;4.55;2.30;;;;;;;;;;4984473;28;20125;-56
2021/11/27 12:46:45;;;;;;;5.90;2.40;;;;;;;;;;4986538;28;20045;-50
2021/11/27 12:49:31;;;;;;;4.97;2.33;;;;;;;;;;4985737;28;20050;-52
2021/11/27 12:52:29;;;;;;;4.53;2.20;;;;;;;;;;4987097;28;20038;-53
2021/11/27 12:54:56;;;;;;;4.65;2.35;;;;;;;;;;4941445;28;20066;-54
2021/11/27 12:57:27;;;;;;;4.00;2.08;;;;;;;;;;4984763;28;20057;-52
2021/11/27 13:00:19;;;;;;;5.75;2.38;;;;;;;;;;4985901;28;20134;-50
2021/11/27 13:02:53;;;;;;;5.18;2.30;;;;;;;;;;4980976;28;20150;-52
2021/11/27 13:05:19;;;;;;;4.78;2.10;;;;;;;;;;4983786;28;20043;-54
2021/11/27 13:07:45;;;;;;;6.93;2.40;;;;;;;;;;4984814;28;20065;-51
2021/11/27 13:10:11;;;;;;;5.53;2.05;;;;;;;;;;4983797;28;20070;-54
2021/11/27 13:12:53;;;;;;;5.68;2.15;;;;;;;;;;4981911;28;22379;-53
2021/11/27 13:15:19;;;;;;;4.18;1.83;;;;;;;;;;4983879;28;20038;-54
2021/11/27 13:18:04;;;;;;;3.72;1.83;;;;;;;;;;4983855;28;20045;-53
2021/11/27 13:20:59;;;;;;;4.18;2.05;;;;;;;;;;4983899;28;20520;-55
2021/11/27 13:23:26;;;;;;;4.35;1.83;;;;;;;;;;4963370;28;20038;-55
2021/11/27 13:25:53;;;;;;;3.88;1.80;;;;;;;;;;4984187;28;20035;-52
2021/11/27 13:28:23;;;;;;;6.78;2.15;;;;;;;;;;4984987;28;20037;-51
2021/11/27 13:30:51;;;;;;;5.00;2.25;;;;;;;;;;4983652;28;20042;-53
2021/11/27 13:33:17;;;;;;;6.82;2.53;;;;;;;;;;4984684;28;20124;-51
2021/11/27 13:35:43;;;;;;;9.90;2.80;;;;;;;;;;4983635;28;20543;-51
2021/11/27 13:38:09;;;;;;;7.20;3.28;;;;;;;;;;4983099;28;20101;-52
2021/11/27 13:40:37;;;;;;;5.93;2.97;;;;;;;;;;4982787;28;20077;-54
2021/11/27 13:43:04;;;;;;;6.20;2.72;;;;;;;;;;4986064;28;20095;-52
2021/11/27 13:45:30;;;;;;;5.88;2.90;;;;;;;;;;4985252;28;20101;-55
2021/11/27 13:48:04;;;;;;;9.13;3.03;;;;;;;;;;4985425;28;20434;-53
2021/11/27 13:50:30;;;;;;;6.55;3.13;;;;;;;;;;4983768;28;20125;-51
2021/11/27 13:52:56;;;;;;;5.28;2.83;;;;;;;;;;4983469;28;20384;-53
2021/11/27 13:55:24;;;;;;;6.32;3.15;;;;;;;;;;4983220;28;20542;-54
2021/11/27 13:57:51;;;;;;;7.18;2.92;;;;;;;;;;4983144;28;20129;-53
2021/11/27 14:00:19;;;;;;;5.07;2.65;;;;;;;;;;4964715;28;20041;-53
2021/11/27 14:02:45;;;;;;;9.70;4.50;;;;;;;;;;4985586;28;20526;-54
2021/11/27 14:05:11;;;;;;;6.45;3.28;;;;;;;;;;4983921;28;20518;-53
2021/11/27 14:07:38;;;;;;;6.85;3.00;;;;;;;;;;4982781;28;20051;-56
2021/11/27 14:10:14;;;;;;;5.07;2.83;;;;;;;;;;4982472;28;20042;-54
2021/11/27 14:12:45;;;;;;;6.35;3.22;;;;;;;;;;4982775;28;20038;-53
2021/11/27 14:15:11;;;;;;;5.65;2.67;;;;;;;;;;4984009;28;20049;-55
2021/11/27 14:17:37;;;;;;;6.18;2.90;;;;;;;;;;4981844;28;20475;-54
2021/11/27 14:20:07;;;;;;;6.72;2.60;;;;;;;;;;4983644;28;20050;-54
2021/11/27 14:22:33;;;;;;;7.13;2.75;;;;;;;;;;4980025;28;20062;-54
2021/11/27 14:25:09;;;;;;;6.25;2.60;;;;;;;;;;4963044;28;20068;-54
2021/11/27 14:27:46;;;;;;;10.75;2.83;;;;;;;;;;4981855;28;20735;-54
2021/11/27 14:30:18;;;;;;;6.30;2.78;;;;;;;;;;4965699;28;20395;-53
2021/11/27 14:32:44;;;;;;;5.53;3.00;;;;;;;;;;4981778;28;20037;-57
2021/11/27 14:35:23;;;;;;;5.68;2.92;;;;;;;;;;4982023;28;20063;-54
2021/11/27 14:37:50;;;;;;;5.10;2.88;;;;;;;;;;4982963;28;20049;-53
2021/11/27 14:40:15;;;;;;;7.60;3.00;;;;;;;;;;4982810;28;20037;-54
2021/11/27 14:42:41;;;;;;;6.40;3.00;;;;;;;;;;4981653;28;20042;-53
2021/11/27 14:45:07;;;;;;;5.15;2.70;;;;;;;;;;4984563;28;20035;-54
2021/11/27 14:47:41;;;;;;;7.10;2.42;;;;;;;;;;4986526;28;20435;-56